KSVN/SVN METAR and TAF weather

Enter ICAO airport designator
Station Type Date Time Source
KSVN METAR 2020/07/10 21:56 UTC NOAA

KSVN 102156Z AUTO 14009KT 10SM CLR 33/25 A2983 RMK AO2 SLP104 T03300247 $


Station Type Date Time Source
KSVN Decoded METAR 2020/07/10 21:56 UTC NOAA

Hunter U. S. Army Airfield , GA, United States (KSVN) 32-01N 081-09W
Jul 10, 2020 - 05:56 PM EDT / 2020.07.10 2156 UTC
Wind: from the SE (140 degrees) at 10 MPH (9 KT):0
Visibility: 10 mile(s):0
Sky conditions: clear
Temperature: 91.4 F (33.0 C)
Heat index: 103.8 F (39.9 C):1
Dew Point: 76.5 F (24.7 C)
Relative Humidity: 61%
Pressure (altimeter): 29.83 in. Hg (1010 hPa)
ob: KSVN 102156Z AUTO 14009KT 10SM CLR 33/25 A2983 RMK AO2 SLP104 T03300247
cycle: 22

Station Type Date Time Source
KSVN TAF 2020/07/10 20:12 UTC NOAA

TAF KSVN 102000Z 1020/1202 VRB06KT 9999 BKN040 QNH2982INS
TEMPO 1021/1023 VRB12G18KT 9999 VCTS BKN030CB OVC045 TX34/1120Z TN25/1111Z

Example: see airport list